createdAt,value
2017-05-30T00:00:46.611Z,7.95
2017-05-30T00:03:13.805Z,8.00
2017-05-30T00:05:41.058Z,8.45
2017-05-30T00:08:08.230Z,7.60
2017-05-30T00:10:35.507Z,7.95
2017-05-30T00:13:02.698Z,8.02
2017-05-30T00:15:29.953Z,7.88
2017-05-30T00:17:57.106Z,8.38
2017-05-30T00:20:24.397Z,7.40
2017-05-30T00:22:51.569Z,7.88
2017-05-30T00:25:18.754Z,7.75
2017-05-30T00:27:46.016Z,8.10
2017-05-30T00:30:13.293Z,7.87
2017-05-30T00:32:40.526Z,7.77
2017-05-30T00:35:07.723Z,7.62
2017-05-30T00:37:35.013Z,7.45
2017-05-30T00:40:02.187Z,7.82
2017-05-30T00:42:29.669Z,7.47
2017-05-30T00:44:56.942Z,7.55
2017-05-30T00:47:24.125Z,8.10
2017-05-30T00:49:51.706Z,7.93
2017-05-30T00:52:18.874Z,7.88
2017-05-30T00:54:46.070Z,7.80
2017-05-30T00:57:13.255Z,7.88
2017-05-30T00:59:40.437Z,8.37
2017-05-30T01:02:07.756Z,7.70
2017-05-30T01:04:34.943Z,7.52
2017-05-30T01:07:02.713Z,7.83
2017-05-30T01:09:29.868Z,8.00
2017-05-30T01:11:57.067Z,7.90
2017-05-30T01:14:24.332Z,7.75
2017-05-30T01:16:51.608Z,8.24
2017-05-30T01:19:18.793Z,8.08
2017-05-30T01:21:46.051Z,7.95
2017-05-30T01:24:13.249Z,8.00
2017-05-30T01:26:40.426Z,7.88
2017-05-30T01:29:07.630Z,8.07
2017-05-30T01:31:34.943Z,8.28
2017-05-30T01:34:02.119Z,7.80
2017-05-30T01:36:29.320Z,8.22
2017-05-30T01:38:56.530Z,8.30
2017-05-30T01:41:23.790Z,8.55
2017-05-30T01:43:51.000Z,8.30
2017-05-30T01:46:18.267Z,8.75
2017-05-30T01:48:45.476Z,8.50
2017-05-30T01:51:12.642Z,8.27
2017-05-30T01:53:40.114Z,7.90
2017-05-30T01:56:07.300Z,8.43
2017-05-30T01:58:34.469Z,8.20
2017-05-30T02:01:01.698Z,8.05
2017-05-30T02:03:28.960Z,8.40
2017-05-30T02:05:56.125Z,8.47
2017-05-30T02:08:23.279Z,8.50
2017-05-30T02:10:50.443Z,8.22
2017-05-30T02:13:17.602Z,8.30
2017-05-30T02:15:44.782Z,8.23
2017-05-30T02:18:11.982Z,8.58
2017-05-30T02:20:39.162Z,7.95
2017-05-30T02:23:06.347Z,8.30
2017-05-30T02:25:33.519Z,8.48
2017-05-30T02:28:00.683Z,7.90
2017-05-30T02:30:27.871Z,8.10
2017-05-30T02:32:55.051Z,8.12
2017-05-30T02:35:22.790Z,8.20
2017-05-30T02:37:49.960Z,8.90
2017-05-30T02:40:17.194Z,8.62
2017-05-30T02:42:44.388Z,8.36
2017-05-30T02:45:11.852Z,8.95
2017-05-30T02:47:39.045Z,8.85
2017-05-30T02:50:06.291Z,8.93
2017-05-30T02:52:33.493Z,8.78
2017-05-30T02:55:00.738Z,8.90
2017-05-30T02:57:27.926Z,9.30
2017-05-30T02:59:55.127Z,8.77
2017-05-30T03:02:22.348Z,9.27
2017-05-30T03:04:49.502Z,9.18
2017-05-30T03:07:16.675Z,9.53
2017-05-30T03:09:43.982Z,9.55
2017-05-30T03:12:11.203Z,9.48
2017-05-30T03:14:38.687Z,9.60
2017-05-30T03:17:05.845Z,9.42
2017-05-30T03:19:33.020Z,9.83
2017-05-30T03:22:00.192Z,9.25
2017-05-30T03:24:27.349Z,9.72
2017-05-30T03:26:55.131Z,9.42
2017-05-30T03:29:22.789Z,9.50
2017-05-30T03:31:50.006Z,10.30
2017-05-30T03:34:17.904Z,9.22
2017-05-30T03:36:45.220Z,10.60
2017-05-30T03:39:12.375Z,10.12
2017-05-30T03:41:39.533Z,10.08
2017-05-30T03:44:06.996Z,10.52
2017-05-30T03:46:34.219Z,9.92
2017-05-30T03:49:01.742Z,10.68
2017-05-30T03:51:28.904Z,10.32
2017-05-30T03:53:56.098Z,10.48
2017-05-30T03:56:23.270Z,10.48
2017-05-30T03:58:50.476Z,10.32
2017-05-30T04:01:17.650Z,10.47
2017-05-30T04:03:44.932Z,10.90
2017-05-30T04:06:12.150Z,11.63
2017-05-30T04:08:39.377Z,10.60
2017-05-30T04:11:06.655Z,10.80
2017-05-30T04:13:33.840Z,10.72
2017-05-30T04:16:01.023Z,11.07
2017-05-30T04:18:29.064Z,10.98
2017-05-30T04:20:56.364Z,10.90
2017-05-30T04:23:23.562Z,11.56
2017-05-30T04:25:50.759Z,12.78
2017-05-30T04:28:18.089Z,11.23
2017-05-30T04:30:45.251Z,11.42
2017-05-30T04:33:12.457Z,11.18
2017-05-30T04:35:39.805Z,11.43
2017-05-30T04:38:06.993Z,11.25
2017-05-30T04:40:34.177Z,10.63
2017-05-30T04:43:01.361Z,11.82
2017-05-30T04:45:28.562Z,11.17
2017-05-30T04:47:55.738Z,11.40
2017-05-30T04:50:22.917Z,11.85
2017-05-30T04:52:50.107Z,11.92
2017-05-30T04:55:17.250Z,11.88
2017-05-30T04:57:44.439Z,12.07
2017-05-30T05:00:11.611Z,11.33
2017-05-30T05:02:38.788Z,11.88
2017-05-30T05:05:06.328Z,11.03
2017-05-30T05:07:33.556Z,10.10
2017-05-30T05:10:00.826Z,10.73
2017-05-30T05:12:28.174Z,10.37
2017-05-30T05:14:55.414Z,9.55
2017-05-30T05:17:22.624Z,9.52
2017-05-30T05:19:49.825Z,9.00
2017-05-30T05:22:17.213Z,9.80
2017-05-30T05:24:44.557Z,9.12
2017-05-30T05:27:12.866Z,8.82
2017-05-30T05:29:40.982Z,9.43
2017-05-30T05:32:08.178Z,8.75
2017-05-30T05:34:35.350Z,10.65
2017-05-30T05:37:02.563Z,8.30
2017-05-30T05:39:29.941Z,7.83
2017-05-30T05:41:57.131Z,8.16
2017-05-30T05:44:24.343Z,8.15
2017-05-30T05:46:51.523Z,8.60
2017-05-30T05:49:18.686Z,8.45
2017-05-30T05:51:45.880Z,9.00
2017-05-30T05:54:13.120Z,9.17
2017-05-30T05:56:40.908Z,9.08
2017-05-30T05:59:08.081Z,9.10
2017-05-30T06:01:35.281Z,9.10
2017-05-30T06:04:02.491Z,9.20
2017-05-30T06:06:29.774Z,9.56
2017-05-30T06:08:58.783Z,9.75
2017-05-30T06:11:26.202Z,9.78
2017-05-30T06:13:53.620Z,10.80
2017-05-30T06:16:21.138Z,9.73
2017-05-30T06:18:48.736Z,9.62
2017-05-30T06:21:17.175Z,10.05
2017-05-30T06:23:46.393Z,10.87
2017-05-30T06:26:14.309Z,10.32
2017-05-30T06:28:43.644Z,9.38
2017-05-30T06:31:10.920Z,12.62
2017-05-30T06:33:38.759Z,9.67
2017-05-30T06:36:06.371Z,9.93
2017-05-30T06:38:33.864Z,10.20
2017-05-30T06:41:01.537Z,10.37
2017-05-30T06:43:29.010Z,10.02
2017-05-30T06:45:56.797Z,12.08
2017-05-30T06:48:25.137Z,11.52
2017-05-30T06:50:52.366Z,10.40
2017-05-30T06:53:19.847Z,11.40
2017-05-30T06:55:47.094Z,11.42
2017-05-30T06:58:14.396Z,11.52
2017-05-30T07:00:41.614Z,10.47
2017-05-30T07:03:08.818Z,10.36
2017-05-30T07:05:36.355Z,10.32
2017-05-30T07:08:03.593Z,11.10
2017-05-30T07:10:31.110Z,10.90
2017-05-30T07:12:58.583Z,9.97
2017-05-30T07:15:25.791Z,10.60
2017-05-30T07:17:53.188Z,10.60
2017-05-30T07:20:20.504Z,10.04
2017-05-30T07:22:48.192Z,9.50
2017-05-30T07:25:16.373Z,9.75
2017-05-30T07:27:43.871Z,8.50
2017-05-30T07:30:11.881Z,7.82
2017-05-30T07:32:39.232Z,7.52
2017-05-30T07:35:06.403Z,6.90
2017-05-30T07:37:34.105Z,7.15
2017-05-30T07:40:01.653Z,7.60
2017-05-30T07:42:29.010Z,7.33
2017-05-30T07:44:56.574Z,7.20
2017-05-30T07:47:24.703Z,6.93
2017-05-30T07:49:52.912Z,7.34
2017-05-30T07:52:21.080Z,7.25
2017-05-30T07:54:48.453Z,7.12
2017-05-30T07:57:17.365Z,6.85
2017-05-30T07:59:44.848Z,6.88
2017-05-30T08:02:12.242Z,6.40
2017-05-30T08:04:39.542Z,6.60
2017-05-30T08:07:06.873Z,6.43
2017-05-30T08:09:34.472Z,6.38
2017-05-30T08:12:01.923Z,6.62
2017-05-30T08:14:29.308Z,6.10
2017-05-30T08:16:56.583Z,6.17
2017-05-30T08:19:23.851Z,6.10
2017-05-30T08:21:51.336Z,5.90
2017-05-30T08:24:18.712Z,5.40
2017-05-30T08:26:45.990Z,5.50
2017-05-30T08:29:13.213Z,5.60
2017-05-30T08:31:40.596Z,5.40
2017-05-30T08:34:07.765Z,5.50
2017-05-30T08:36:34.952Z,5.33
2017-05-30T08:39:02.883Z,4.63
2017-05-30T08:41:30.146Z,4.72
2017-05-30T08:43:57.427Z,4.46
2017-05-30T08:46:24.816Z,4.30
2017-05-30T08:48:52.000Z,4.50
2017-05-30T08:51:19.186Z,4.38
2017-05-30T08:53:46.415Z,4.47
2017-05-30T08:56:13.942Z,4.10
2017-05-30T08:58:41.099Z,4.20
2017-05-30T09:03:24.104Z,4.20
2017-05-30T09:05:51.280Z,4.18
2017-05-30T09:08:18.425Z,4.58
2017-05-30T09:10:45.988Z,4.50
2017-05-30T09:13:13.153Z,4.37
2017-05-30T09:15:40.332Z,4.50
2017-05-30T09:18:07.624Z,4.40
2017-05-30T09:20:34.853Z,4.12
2017-05-30T09:23:02.052Z,4.24
2017-05-30T09:25:29.262Z,4.00
2017-05-30T09:27:56.434Z,4.22
2017-05-30T09:30:23.972Z,3.10
2017-05-30T09:32:51.171Z,3.35
2017-05-30T09:35:18.318Z,2.83
2017-05-30T09:37:45.523Z,2.80
2017-05-30T09:40:12.743Z,3.08
2017-05-30T09:42:39.897Z,3.00
2017-05-30T09:45:07.413Z,3.12
2017-05-30T09:47:34.575Z,3.10
2017-05-30T09:50:01.812Z,3.18
2017-05-30T09:52:29.010Z,2.90
2017-05-30T09:54:56.176Z,2.67
2017-05-30T09:57:23.375Z,2.38
2017-05-30T09:59:50.552Z,2.32
2017-05-30T10:02:17.764Z,2.32
2017-05-30T10:04:44.981Z,3.08
2017-05-30T10:07:12.165Z,2.88
2017-05-30T10:09:39.350Z,2.70
2017-05-30T10:12:06.526Z,3.20
2017-05-30T10:14:33.786Z,2.42
2017-05-30T10:17:00.978Z,2.97
2017-05-30T10:19:28.272Z,2.90
2017-05-30T10:21:55.431Z,2.60
2017-05-30T10:24:22.659Z,3.68
2017-05-30T10:26:49.835Z,3.67
2017-05-30T10:29:16.999Z,3.00
2017-05-30T10:31:44.216Z,2.80
2017-05-30T10:34:11.427Z,3.00
2017-05-30T10:36:38.629Z,2.87
2017-05-30T10:39:05.813Z,3.37
2017-05-30T10:41:33.472Z,2.70
2017-05-30T10:44:00.657Z,2.92
2017-05-30T10:46:28.164Z,3.00
2017-05-30T10:48:55.353Z,2.88
2017-05-30T10:51:25.838Z,2.83
2017-05-30T10:53:52.998Z,2.80
2017-05-30T10:56:20.174Z,2.80
2017-05-30T10:58:47.398Z,3.15
2017-05-30T11:01:14.578Z,3.08
2017-05-30T11:03:41.756Z,3.02
2017-05-30T11:06:08.951Z,2.90
2017-05-30T11:08:37.094Z,3.00
2017-05-30T11:11:04.294Z,2.86
2017-05-30T11:13:31.542Z,2.80
2017-05-30T11:15:58.880Z,3.14
2017-05-30T11:18:26.072Z,3.00
2017-05-30T11:20:53.690Z,3.30
2017-05-30T11:23:20.924Z,3.20
2017-05-30T11:25:48.217Z,3.27
2017-05-30T11:28:15.419Z,3.20
2017-05-30T11:30:42.589Z,3.20
2017-05-30T11:33:09.789Z,3.10
2017-05-30T11:35:37.094Z,3.02
2017-05-30T11:38:04.387Z,3.32
2017-05-30T11:40:31.723Z,2.95
2017-05-30T11:42:59.342Z,3.12
2017-05-30T11:45:27.231Z,3.30
2017-05-30T11:47:54.493Z,3.28
2017-05-30T11:50:23.029Z,3.37
2017-05-30T11:52:50.236Z,3.00
2017-05-30T11:55:17.560Z,3.30
2017-05-30T11:57:44.932Z,3.20
2017-05-30T12:00:12.820Z,3.20
2017-05-30T12:02:40.096Z,3.60
2017-05-30T12:05:07.574Z,3.22
2017-05-30T12:07:34.772Z,3.20
2017-05-30T12:10:02.123Z,3.20
2017-05-30T12:12:29.499Z,3.50
2017-05-30T12:14:57.897Z,3.25
2017-05-30T12:17:41.331Z,3.60
2017-05-30T12:20:08.608Z,3.50
2017-05-30T12:22:35.982Z,3.52
2017-05-30T12:25:03.202Z,3.50
2017-05-30T12:27:30.397Z,3.80
2017-05-30T12:29:57.617Z,3.77
2017-05-30T12:32:24.819Z,3.60
2017-05-30T12:34:52.050Z,3.52
2017-05-30T12:37:19.254Z,3.80
2017-05-30T12:39:46.595Z,3.65
2017-05-30T12:42:13.790Z,3.10
2017-05-30T12:44:41.452Z,3.22
2017-05-30T12:47:24.069Z,3.05
2017-05-30T12:49:51.483Z,2.90
2017-05-30T12:52:18.823Z,3.00
2017-05-30T12:54:46.011Z,3.47
2017-05-30T12:57:13.229Z,3.00
2017-05-30T12:59:40.423Z,3.20
2017-05-30T13:02:07.682Z,3.97
2017-05-30T13:04:34.990Z,3.00
2017-05-30T13:07:02.223Z,3.45
2017-05-30T13:09:29.537Z,2.80
2017-05-30T13:11:56.821Z,2.70
2017-05-30T13:14:24.061Z,2.75
2017-05-30T13:16:51.301Z,2.77
2017-05-30T13:19:18.486Z,2.60
2017-05-30T13:21:45.686Z,2.62
2017-05-30T13:24:12.858Z,2.60
2017-05-30T13:26:40.026Z,2.70
2017-05-30T13:29:07.222Z,2.57
2017-05-30T13:31:34.430Z,2.30
2017-05-30T13:34:01.642Z,2.37
2017-05-30T13:36:28.814Z,2.70
2017-05-30T13:38:56.013Z,2.68
2017-05-30T13:41:23.287Z,2.30
2017-05-30T13:43:50.501Z,2.70
2017-05-30T13:46:17.680Z,2.67
2017-05-30T13:48:44.870Z,2.75
2017-05-30T13:51:12.080Z,2.62
2017-05-30T13:53:39.286Z,2.82
2017-05-30T13:56:07.406Z,2.80
2017-05-30T13:58:34.590Z,2.80
2017-05-30T14:01:01.779Z,3.63
2017-05-30T14:03:29.062Z,3.22
2017-05-30T14:05:56.273Z,3.45
2017-05-30T14:08:23.466Z,3.58
2017-05-30T14:10:50.646Z,3.85
2017-05-30T14:13:17.806Z,3.48
2017-05-30T14:15:45.113Z,4.00
2017-05-30T14:18:12.380Z,4.20
2017-05-30T14:20:39.551Z,4.30
2017-05-30T14:23:06.738Z,3.95
2017-05-30T14:25:34.429Z,4.23
2017-05-30T14:28:01.592Z,3.90
2017-05-30T14:30:28.770Z,3.90
2017-05-30T14:32:55.987Z,4.55
2017-05-30T14:35:23.224Z,4.10
2017-05-30T14:37:50.398Z,4.20
2017-05-30T14:40:17.609Z,4.15
2017-05-30T14:42:44.775Z,4.42
2017-05-30T14:45:12.010Z,3.75
2017-05-30T14:47:39.180Z,3.70
2017-05-30T14:50:09.933Z,3.57
2017-05-30T14:52:37.108Z,3.75
2017-05-30T14:55:04.434Z,3.85
2017-05-30T14:57:31.761Z,4.10
2017-05-30T14:59:59.236Z,3.98
2017-05-30T15:02:26.612Z,4.45
2017-05-30T15:04:53.884Z,4.32
2017-05-30T15:07:21.128Z,5.30
2017-05-30T15:09:48.740Z,4.93
2017-05-30T15:12:15.934Z,5.05
2017-05-30T15:14:43.290Z,4.88
2017-05-30T15:17:10.503Z,6.20
2017-05-30T15:19:39.852Z,5.13
2017-05-30T15:22:07.062Z,4.80
2017-05-30T15:24:34.329Z,4.94
2017-05-30T15:27:02.219Z,5.38
2017-05-30T15:29:29.417Z,5.15
2017-05-30T15:31:56.616Z,5.28
2017-05-30T15:34:23.806Z,5.68
2017-05-30T15:36:51.038Z,5.22
2017-05-30T15:39:18.198Z,5.20
2017-05-30T15:41:45.408Z,5.38
2017-05-30T15:44:12.581Z,5.33
2017-05-30T15:46:41.548Z,5.12
2017-05-30T15:49:09.027Z,4.93
2017-05-30T15:51:36.219Z,5.20
2017-05-30T15:54:03.417Z,5.40
2017-05-30T15:56:30.737Z,5.12
2017-05-30T15:58:58.010Z,5.50
2017-05-30T16:01:25.287Z,5.32
2017-05-30T16:03:53.021Z,5.60
2017-05-30T16:06:20.243Z,5.90
2017-05-30T16:08:47.590Z,5.80
2017-05-30T16:11:14.785Z,5.60
2017-05-30T16:13:41.962Z,6.03
2017-05-30T16:16:09.240Z,5.80
2017-05-30T16:18:36.514Z,6.00
2017-05-30T16:21:03.768Z,5.90
2017-05-30T16:23:31.061Z,9.08
2017-05-30T16:25:58.232Z,6.27
2017-05-30T16:28:25.390Z,6.02
2017-05-30T16:30:52.637Z,6.10
2017-05-30T16:33:19.831Z,5.82
2017-05-30T16:35:47.034Z,10.78
2017-05-30T16:38:14.211Z,10.64
2017-05-30T16:40:41.475Z,7.73
2017-05-30T16:43:08.654Z,8.12
2017-05-30T16:45:35.833Z,15.78
2017-05-30T16:48:03.048Z,8.87
2017-05-30T16:50:30.204Z,6.92
2017-05-30T16:52:57.535Z,7.75
2017-05-30T16:55:24.745Z,5.17
2017-05-30T16:57:52.482Z,4.80
2017-05-30T17:00:19.680Z,5.67
2017-05-30T17:02:47.042Z,9.62
2017-05-30T17:05:14.232Z,5.42
2017-05-30T17:07:41.593Z,12.35
2017-05-30T17:10:08.831Z,8.22
2017-05-30T17:12:36.039Z,5.32
2017-05-30T17:15:03.281Z,5.10
2017-05-30T17:17:30.484Z,5.08
2017-05-30T17:19:57.741Z,5.85
2017-05-30T17:22:24.985Z,5.00
2017-05-30T17:24:53.132Z,5.36
2017-05-30T17:27:20.399Z,5.33
2017-05-30T17:29:48.798Z,5.47
2017-05-30T17:32:16.008Z,5.88
2017-05-30T17:34:43.225Z,5.07
2017-05-30T17:37:10.471Z,4.90
2017-05-30T17:39:37.693Z,4.82
2017-05-30T17:42:05.172Z,4.67
2017-05-30T17:44:32.410Z,5.12
2017-05-30T17:46:59.610Z,4.72
2017-05-30T17:49:26.994Z,4.62
2017-05-30T17:51:54.881Z,5.10
2017-05-30T17:54:22.265Z,4.87
2017-05-30T17:56:49.425Z,5.03
2017-05-30T17:59:17.089Z,5.15
2017-05-30T18:01:44.388Z,5.10
2017-05-30T18:04:11.636Z,5.03
2017-05-30T18:06:38.939Z,5.00
2017-05-30T18:09:06.213Z,5.65
2017-05-30T18:11:33.409Z,4.95
2017-05-30T18:14:00.625Z,4.90
2017-05-30T18:16:28.411Z,4.97
2017-05-30T18:21:32.487Z,4.63
2017-05-30T18:23:59.688Z,4.75
2017-05-30T18:26:26.950Z,4.60
2017-05-30T18:28:54.400Z,5.00
2017-05-30T18:31:22.308Z,5.22
2017-05-30T18:33:49.543Z,5.20
2017-05-30T18:36:16.713Z,4.85
2017-05-30T18:38:43.961Z,4.63
2017-05-30T18:41:11.316Z,5.00
2017-05-30T18:43:38.688Z,5.10
2017-05-30T18:46:06.474Z,5.30
2017-05-30T18:48:33.681Z,5.35
2017-05-30T18:51:00.875Z,5.10
2017-05-30T18:53:28.128Z,4.90
2017-05-30T18:55:55.474Z,5.20
2017-05-30T18:58:22.658Z,5.20
2017-05-30T19:00:49.979Z,5.60
2017-05-30T19:03:17.294Z,5.00
2017-05-30T19:05:44.565Z,5.87
2017-05-30T19:08:11.839Z,5.77
2017-05-30T19:10:39.111Z,6.55
2017-05-30T19:13:06.324Z,5.73
2017-05-30T19:15:33.560Z,6.08
2017-05-30T19:18:00.740Z,5.70
2017-05-30T19:20:27.946Z,5.62
2017-05-30T19:22:55.121Z,5.70
2017-05-30T19:25:22.309Z,5.62
2017-05-30T19:27:49.510Z,5.85
2017-05-30T19:30:16.729Z,5.25
2017-05-30T19:32:44.222Z,5.82
2017-05-30T19:35:13.698Z,5.85
2017-05-30T19:37:41.692Z,6.10
2017-05-30T19:40:08.990Z,5.93
2017-05-30T19:42:36.952Z,5.80
2017-05-30T19:45:04.144Z,6.20
2017-05-30T19:47:31.506Z,5.63
2017-05-30T19:49:58.733Z,5.78
2017-05-30T19:52:25.989Z,5.50
2017-05-30T19:54:53.326Z,5.15
2017-05-30T19:57:20.700Z,5.40
2017-05-30T19:59:48.425Z,4.88
2017-05-30T20:02:17.016Z,5.00
2017-05-30T20:04:45.734Z,5.10
2017-05-30T20:07:12.920Z,5.40
2017-05-30T20:09:40.332Z,5.18
2017-05-30T20:12:07.551Z,5.52
2017-05-30T20:14:34.764Z,5.53
2017-05-30T20:17:02.066Z,5.50
2017-05-30T20:19:29.342Z,5.22
2017-05-30T20:21:56.556Z,6.10
2017-05-30T20:24:23.990Z,5.62
2017-05-30T20:26:51.210Z,5.53
2017-05-30T20:29:18.541Z,5.40
2017-05-30T20:31:45.775Z,5.50
2017-05-30T20:34:13.191Z,5.58
2017-05-30T20:36:40.378Z,5.48
2017-05-30T20:39:07.642Z,5.80
2017-05-30T20:41:34.834Z,5.53
2017-05-30T20:44:02.023Z,5.70
2017-05-30T20:46:29.214Z,5.33
2017-05-30T20:48:56.530Z,5.20
2017-05-30T20:51:23.697Z,5.63
2017-05-30T20:53:50.927Z,5.80
2017-05-30T20:56:18.463Z,6.05
2017-05-30T20:58:45.671Z,5.67
2017-05-30T21:01:12.837Z,5.63
2017-05-30T21:03:40.356Z,5.47
2017-05-30T21:06:07.654Z,5.85
2017-05-30T21:08:34.930Z,5.58
2017-05-30T21:11:02.474Z,5.88
2017-05-30T21:13:30.272Z,5.88
2017-05-30T21:15:57.573Z,6.38
2017-05-30T21:18:24.741Z,5.85
2017-05-30T21:20:51.919Z,6.43
2017-05-30T21:23:19.092Z,6.38
2017-05-30T21:25:46.320Z,5.90
2017-05-30T21:28:13.742Z,5.87
2017-05-30T21:30:41.075Z,5.70
2017-05-30T21:33:08.301Z,6.05
2017-05-30T21:35:35.477Z,6.35
2017-05-30T21:38:02.649Z,6.27
2017-05-30T21:40:29.857Z,6.53
2017-05-30T21:42:57.078Z,6.08
2017-05-30T21:45:24.278Z,7.00
2017-05-30T21:47:51.442Z,6.78
2017-05-30T21:50:18.602Z,6.52
2017-05-30T21:52:45.778Z,6.80
2017-05-30T21:55:13.350Z,6.80
2017-05-30T21:57:40.825Z,7.02
2017-05-30T22:00:08.105Z,7.07
2017-05-30T22:02:35.563Z,7.53
2017-05-30T22:05:02.036Z,7.35
2017-05-30T22:07:29.289Z,7.47
2017-05-30T22:09:56.468Z,7.03
2017-05-30T22:12:23.652Z,8.17
2017-05-30T22:14:50.873Z,7.57
2017-05-30T22:17:18.077Z,8.00
2017-05-30T22:19:45.221Z,8.44
2017-05-30T22:22:12.417Z,8.18
2017-05-30T22:24:39.730Z,8.58
2017-05-30T22:27:06.992Z,8.57
2017-05-30T22:29:34.208Z,8.80
2017-05-30T22:32:01.484Z,8.56
2017-05-30T22:34:28.656Z,8.80
2017-05-30T22:36:55.836Z,8.75
2017-05-30T22:39:23.394Z,9.00
2017-05-30T22:41:50.537Z,9.63
2017-05-30T22:44:17.811Z,9.72
2017-05-30T22:46:45.079Z,10.14
2017-05-30T22:51:46.214Z,10.18
2017-05-30T22:54:13.362Z,9.75
2017-05-30T22:56:40.524Z,10.40
2017-05-30T22:59:08.115Z,10.35
2017-05-30T23:01:35.263Z,11.05
2017-05-30T23:04:02.411Z,11.07
2017-05-30T23:06:29.579Z,11.83
2017-05-30T23:08:56.794Z,11.90
2017-05-30T23:11:23.952Z,11.63
2017-05-30T23:13:51.112Z,11.93
2017-05-30T23:16:18.288Z,12.43
2017-05-30T23:18:45.507Z,12.60
2017-05-30T23:21:13.225Z,13.17
2017-05-30T23:23:40.613Z,12.60
2017-05-30T23:26:07.801Z,12.26
2017-05-30T23:28:35.437Z,13.87
2017-05-30T23:31:03.189Z,13.75
2017-05-30T23:33:30.362Z,13.48
2017-05-30T23:35:57.567Z,13.60
2017-05-30T23:38:24.747Z,13.78
2017-05-30T23:40:51.950Z,14.40
2017-05-30T23:43:19.303Z,14.50
2017-05-30T23:45:46.476Z,14.80
2017-05-30T23:48:13.655Z,14.50
2017-05-30T23:50:40.823Z,15.20
2017-05-30T23:53:08.015Z,15.23
2017-05-30T23:55:35.212Z,14.98
2017-05-30T23:58:02.572Z,15.20
